Login to view products. 
Thursday, January 19, 2017 (02:11 UTC)
Abu Dhabi International Airport
Last Updated: 19-Jan-2017 (02:11Z)
Wind Dir/Speed: S at 03 kt
Temperature: 15.7°C
Rel. Humidity: 81 %
Pressure: 1018.5 hPa
Visibility: 10000 m
ACTUALS
  • METAR OMAA 190200Z 16002KT CAVOK 16/12 Q1018 NOSIG
  • TAF OMAA 182300Z 1900/2006 VRB02KT 8000 NSC BECMG 1908/1910 31009KT BECMG 1918/1920 VRB02KT PROB30 2000/2005 3000 BR=